createdAt,value
2018-10-02T00:00:00.607Z,11.75
2018-10-02T00:02:29.360Z,11.68
2018-10-02T00:04:57.912Z,11.69
2018-10-02T00:07:26.434Z,11.65
2018-10-02T00:09:54.975Z,11.64
2018-10-02T00:12:28.786Z,11.62
2018-10-02T00:14:57.319Z,11.59
2018-10-02T00:17:25.850Z,11.50
2018-10-02T00:19:54.492Z,11.47
2018-10-02T00:22:23.143Z,11.41
2018-10-02T00:24:51.809Z,11.33
2018-10-02T00:27:20.345Z,11.28
2018-10-02T00:29:48.890Z,11.25
2018-10-02T00:32:17.541Z,11.24
2018-10-02T00:34:46.206Z,11.14
2018-10-02T00:37:14.793Z,11.07
2018-10-02T00:39:43.569Z,11.12
2018-10-02T00:42:12.253Z,11.23
2018-10-02T00:44:40.906Z,11.25
2018-10-02T00:47:09.675Z,11.33
2018-10-02T00:49:38.285Z,11.39
2018-10-02T00:52:06.867Z,11.34
2018-10-02T00:54:35.758Z,11.41
2018-10-02T00:57:04.426Z,11.43
2018-10-02T00:59:33.294Z,11.35
2018-10-02T01:02:01.946Z,11.32
2018-10-02T01:04:30.629Z,11.32
2018-10-02T01:06:59.469Z,11.28
2018-10-02T01:09:28.109Z,11.28
2018-10-02T01:11:56.722Z,11.23
2018-10-02T01:14:25.709Z,11.31
2018-10-02T01:16:54.313Z,11.38
2018-10-02T01:19:23.015Z,11.31
2018-10-02T01:21:51.844Z,11.34
2018-10-02T01:24:20.966Z,11.30
2018-10-02T01:26:49.513Z,11.38
2018-10-02T01:29:18.240Z,11.40
2018-10-02T01:31:46.805Z,11.42
2018-10-02T01:34:15.776Z,11.40
2018-10-02T01:36:44.442Z,11.36
2018-10-02T01:39:13.097Z,11.33
2018-10-02T01:41:41.657Z,11.33
2018-10-02T01:44:10.215Z,11.26
2018-10-02T01:46:38.776Z,11.26
2018-10-02T01:49:07.382Z,11.13
2018-10-02T01:51:36.236Z,11.13
2018-10-02T01:54:05.245Z,11.10
2018-10-02T01:56:33.863Z,11.07
2018-10-02T01:59:02.390Z,11.08
2018-10-02T02:01:31.095Z,11.09
2018-10-02T02:03:59.705Z,11.13
2018-10-02T02:06:28.246Z,11.14
2018-10-02T02:08:56.885Z,11.10
2018-10-02T02:11:26.627Z,11.08
2018-10-02T02:13:55.614Z,11.02
2018-10-02T02:16:24.910Z,10.98
2018-10-02T02:18:53.463Z,11.09
2018-10-02T02:21:21.998Z,11.05
2018-10-02T02:23:50.538Z,10.99
2018-10-02T02:26:19.120Z,11.06
2018-10-02T02:28:47.662Z,11.06
2018-10-02T02:31:16.325Z,11.06
2018-10-02T02:33:44.910Z,10.90
2018-10-02T02:36:13.474Z,10.86
2018-10-02T02:38:42.078Z,10.80
2018-10-02T02:41:10.990Z,10.86
2018-10-02T02:43:39.522Z,10.84
2018-10-02T02:46:08.213Z,10.82
2018-10-02T02:48:42.122Z,10.81
2018-10-02T02:51:15.963Z,10.72
2018-10-02T02:53:44.551Z,10.77
2018-10-02T02:56:13.157Z,10.75
2018-10-02T02:58:41.721Z,10.74
2018-10-02T03:01:10.273Z,10.71
2018-10-02T03:03:38.849Z,10.68
2018-10-02T03:06:07.513Z,10.67
2018-10-02T03:08:36.179Z,10.62
2018-10-02T03:11:04.752Z,10.61
2018-10-02T03:13:33.302Z,10.61
2018-10-02T03:16:01.853Z,10.53
2018-10-02T03:18:30.661Z,10.49
2018-10-02T03:20:59.277Z,10.43
2018-10-02T03:23:27.935Z,10.42
2018-10-02T03:25:56.566Z,10.35
2018-10-02T03:28:25.154Z,10.39
2018-10-02T03:30:53.723Z,10.40
2018-10-02T03:33:22.330Z,10.37
2018-10-02T03:35:50.966Z,10.39
2018-10-02T03:38:19.575Z,10.36
2018-10-02T03:40:48.244Z,10.37
2018-10-02T03:43:16.794Z,10.29
2018-10-02T03:45:45.402Z,10.31
2018-10-02T03:48:13.945Z,10.29
2018-10-02T03:50:42.491Z,10.23
2018-10-02T03:53:11.038Z,10.30
2018-10-02T03:55:40.603Z,10.29
2018-10-02T03:58:09.252Z,10.32
2018-10-02T04:00:37.992Z,10.31
2018-10-02T04:03:06.582Z,10.27
2018-10-02T04:05:35.235Z,10.27
2018-10-02T04:08:03.767Z,10.25
2018-10-02T04:10:32.345Z,10.27
2018-10-02T04:13:00.911Z,10.27
2018-10-02T04:15:30.230Z,10.25
2018-10-02T04:17:58.836Z,10.24
2018-10-02T04:20:27.426Z,10.26
2018-10-02T04:22:56.113Z,10.27
2018-10-02T04:25:24.664Z,10.25
2018-10-02T04:27:53.425Z,10.30
2018-10-02T04:30:22.167Z,10.28
2018-10-02T04:32:50.898Z,10.23
2018-10-02T04:35:19.567Z,10.25
2018-10-02T04:37:48.186Z,10.32
2018-10-02T04:40:16.766Z,10.32
2018-10-02T04:42:45.354Z,10.31
2018-10-02T04:45:13.905Z,10.32
2018-10-02T04:47:42.505Z,10.35
2018-10-02T04:50:11.177Z,10.40
2018-10-02T04:52:39.847Z,10.40
2018-10-02T04:55:08.514Z,10.34
2018-10-02T04:57:37.053Z,10.36
2018-10-02T05:00:06.279Z,10.29
2018-10-02T05:02:34.850Z,10.31
2018-10-02T05:05:03.438Z,10.30
2018-10-02T05:07:32.006Z,10.35
2018-10-02T05:10:00.748Z,10.40
2018-10-02T05:12:29.481Z,10.38
2018-10-02T05:14:58.141Z,10.34
2018-10-02T05:17:26.688Z,10.29
2018-10-02T05:19:55.240Z,10.30
2018-10-02T05:22:23.865Z,10.29
2018-10-02T05:24:52.512Z,10.27
2018-10-02T05:27:21.244Z,10.24
2018-10-02T05:29:49.995Z,10.24
2018-10-02T05:32:18.607Z,10.24
2018-10-02T05:34:47.140Z,10.34
2018-10-02T05:37:15.725Z,10.36
2018-10-02T05:39:44.266Z,10.34
2018-10-02T05:42:12.931Z,10.36
2018-10-02T05:44:41.560Z,10.33
2018-10-02T05:47:10.166Z,10.35
2018-10-02T05:49:39.437Z,10.29
2018-10-02T05:52:08.004Z,10.24
2018-10-02T05:54:37.138Z,10.25
2018-10-02T05:57:05.654Z,10.25
2018-10-02T05:59:34.207Z,10.22
2018-10-02T06:02:03.190Z,10.26
2018-10-02T06:04:31.988Z,10.24
2018-10-02T06:07:00.865Z,10.24
2018-10-02T06:09:29.432Z,10.24
2018-10-02T06:11:58.006Z,10.19
2018-10-02T06:14:26.584Z,10.21
2018-10-02T06:16:55.174Z,10.22
2018-10-02T06:19:24.052Z,10.21
2018-10-02T06:21:52.703Z,10.24
2018-10-02T06:24:21.269Z,10.25
2018-10-02T06:26:49.923Z,10.23
2018-10-02T06:29:18.599Z,10.26
2018-10-02T06:31:47.328Z,10.20
2018-10-02T06:34:16.066Z,10.26
2018-10-02T06:36:44.835Z,10.30
2018-10-02T06:39:13.711Z,10.38
2018-10-02T06:41:42.340Z,10.49
2018-10-02T06:44:11.194Z,10.56
2018-10-02T06:46:39.968Z,10.58
2018-10-02T06:49:08.528Z,10.62
2018-10-02T06:51:37.158Z,10.66
2018-10-02T06:54:05.881Z,10.69
2018-10-02T06:56:34.621Z,10.83
2018-10-02T06:59:03.358Z,10.97
2018-10-02T07:01:31.914Z,11.18
2018-10-02T07:04:00.518Z,11.28
2018-10-02T07:06:29.389Z,11.35
2018-10-02T07:08:58.002Z,11.41
2018-10-02T07:11:26.710Z,11.44
2018-10-02T07:13:55.357Z,11.49
2018-10-02T07:16:24.045Z,11.62
2018-10-02T07:18:52.821Z,11.74
2018-10-02T07:21:21.375Z,11.82
2018-10-02T07:23:49.946Z,11.96
2018-10-02T07:26:18.519Z,12.20
2018-10-02T07:28:47.144Z,12.40
2018-10-02T07:31:15.760Z,12.44
2018-10-02T07:33:44.800Z,12.38
2018-10-02T07:36:13.502Z,12.33
2018-10-02T07:38:42.198Z,12.25
2018-10-02T07:41:10.878Z,12.17
2018-10-02T07:43:39.486Z,12.10
2018-10-02T07:46:08.590Z,12.05
2018-10-02T07:48:37.850Z,11.93
2018-10-02T07:51:07.543Z,11.89
2018-10-02T07:53:36.540Z,11.94
2018-10-02T07:56:05.397Z,11.96
2018-10-02T07:58:34.113Z,12.06
2018-10-02T08:01:02.688Z,12.09
2018-10-02T08:03:31.234Z,12.05
2018-10-02T08:05:59.945Z,12.03
2018-10-02T08:08:28.879Z,12.00
2018-10-02T08:10:57.778Z,12.03
2018-10-02T08:13:26.494Z,12.06
2018-10-02T08:15:55.315Z,12.15
2018-10-02T08:18:23.978Z,12.34
2018-10-02T08:20:52.824Z,12.73
2018-10-02T08:23:21.564Z,13.09
2018-10-02T08:25:51.885Z,13.26
2018-10-02T08:28:21.746Z,13.35
2018-10-02T08:30:51.358Z,13.42
2018-10-02T08:33:19.969Z,13.60
2018-10-02T08:35:48.736Z,13.72
2018-10-02T08:38:18.329Z,13.86
2018-10-02T08:40:46.989Z,13.80
2018-10-02T08:43:15.814Z,13.64
2018-10-02T08:45:44.520Z,13.57
2018-10-02T08:48:13.133Z,13.60
2018-10-02T08:50:41.806Z,13.68
2018-10-02T08:53:10.485Z,13.81
2018-10-02T08:55:39.268Z,13.96
2018-10-02T08:58:08.191Z,14.06
2018-10-02T09:00:37.514Z,14.21
2018-10-02T09:03:06.639Z,14.54
2018-10-02T09:05:35.430Z,14.78
2018-10-02T09:08:04.249Z,14.83
2018-10-02T09:10:32.899Z,14.65
2018-10-02T09:13:02.086Z,14.48
2018-10-02T09:15:30.801Z,14.48
2018-10-02T09:17:59.662Z,14.65
2018-10-02T09:20:28.486Z,14.92
2018-10-02T09:22:57.051Z,15.13
2018-10-02T09:25:25.625Z,15.21
2018-10-02T09:27:54.402Z,15.20
2018-10-02T09:30:28.529Z,15.03
2018-10-02T09:33:02.456Z,14.99
2018-10-02T09:35:36.268Z,14.95
2018-10-02T09:38:10.190Z,14.83
2018-10-02T09:40:44.817Z,14.63
2018-10-02T09:43:18.918Z,14.47
2018-10-02T09:45:47.566Z,14.39
2018-10-02T09:48:16.226Z,14.40
2018-10-02T09:50:44.942Z,14.49
2018-10-02T09:53:13.653Z,14.49
2018-10-02T09:55:42.381Z,14.59
2018-10-02T09:58:11.286Z,14.83
2018-10-02T10:00:45.328Z,15.03
2018-10-02T10:03:14.648Z,15.24
2018-10-02T10:05:43.221Z,15.45
2018-10-02T10:08:11.845Z,15.68
2018-10-02T10:10:40.611Z,15.76
2018-10-02T10:13:09.432Z,15.84
2018-10-02T10:15:38.080Z,15.77
2018-10-02T10:18:07.332Z,15.59
2018-10-02T10:20:36.560Z,15.45
2018-10-02T10:23:05.217Z,15.30
2018-10-02T10:25:33.947Z,15.21
2018-10-02T10:28:02.550Z,15.06
2018-10-02T10:30:31.902Z,14.87
2018-10-02T10:33:00.546Z,14.74
2018-10-02T10:35:29.171Z,14.64
2018-10-02T10:37:57.781Z,14.41
2018-10-02T10:40:26.592Z,14.35
2018-10-02T10:42:55.134Z,14.29
2018-10-02T10:45:23.691Z,14.14
2018-10-02T10:47:52.412Z,14.02
2018-10-02T10:50:20.996Z,13.82
2018-10-02T10:52:49.541Z,13.83
2018-10-02T10:55:33.633Z,13.85
2018-10-02T10:58:02.295Z,13.85
2018-10-02T11:00:30.945Z,13.91
2018-10-02T11:02:59.513Z,14.01
2018-10-02T11:05:28.274Z,14.24
2018-10-02T11:07:56.831Z,14.53
2018-10-02T11:10:25.393Z,14.59
2018-10-02T11:12:54.036Z,14.61
2018-10-02T11:15:23.363Z,14.49
2018-10-02T11:17:52.251Z,14.29
2018-10-02T11:20:25.286Z,14.06
2018-10-02T11:22:54.078Z,13.98
2018-10-02T11:25:22.802Z,13.94
2018-10-02T11:27:51.614Z,14.00
2018-10-02T11:30:20.201Z,14.04
2018-10-02T11:32:48.749Z,14.04
2018-10-02T11:35:17.327Z,14.05
2018-10-02T11:37:46.219Z,14.13
2018-10-02T11:40:14.949Z,14.33
2018-10-02T11:42:43.642Z,14.53
2018-10-02T11:45:12.303Z,14.74
2018-10-02T11:47:40.867Z,14.87
2018-10-02T11:50:09.487Z,14.93
2018-10-02T11:52:38.138Z,14.86
2018-10-02T11:55:07.104Z,14.83
2018-10-02T11:57:35.836Z,14.90
2018-10-02T12:00:05.047Z,15.04
2018-10-02T12:02:33.808Z,15.27
2018-10-02T12:05:02.674Z,15.49
2018-10-02T12:07:31.222Z,15.65
2018-10-02T12:09:59.773Z,15.58
2018-10-02T12:12:28.338Z,15.50
2018-10-02T12:14:56.993Z,15.47
2018-10-02T12:17:25.713Z,15.49
2018-10-02T12:19:54.856Z,15.52
2018-10-02T12:22:23.473Z,15.51
2018-10-02T12:24:52.017Z,15.56
2018-10-02T12:27:20.636Z,15.58
2018-10-02T12:29:49.178Z,15.70
2018-10-02T12:32:17.727Z,15.82
2018-10-02T12:34:46.409Z,15.86
2018-10-02T12:37:15.058Z,15.82
2018-10-02T12:39:43.942Z,15.83
2018-10-02T12:42:13.185Z,15.81
2018-10-02T12:44:41.832Z,15.69
2018-10-02T12:47:10.367Z,15.85
2018-10-02T12:49:39.105Z,16.10
2018-10-02T12:52:07.789Z,16.18
2018-10-02T12:54:37.007Z,16.13
2018-10-02T12:57:05.742Z,16.20
2018-10-02T12:59:34.513Z,16.34
2018-10-02T13:02:03.037Z,16.30
2018-10-02T13:04:31.629Z,16.17
2018-10-02T13:07:00.336Z,15.95
2018-10-02T13:09:29.093Z,15.59
2018-10-02T13:11:57.980Z,15.35
2018-10-02T13:14:26.774Z,15.20
2018-10-02T13:16:55.633Z,15.14
2018-10-02T13:19:24.486Z,15.03
2018-10-02T13:21:53.127Z,14.98
2018-10-02T13:24:21.781Z,14.95
2018-10-02T13:26:50.605Z,14.97
2018-10-02T13:29:19.567Z,15.01
2018-10-02T13:31:48.117Z,14.96
2018-10-02T13:34:17.207Z,14.88
2018-10-02T13:36:45.862Z,14.80
2018-10-02T13:39:14.410Z,14.73
2018-10-02T13:41:43.197Z,14.69
2018-10-02T13:44:11.940Z,14.71
2018-10-02T13:46:40.570Z,14.81
2018-10-02T13:49:09.141Z,14.90
2018-10-02T13:51:37.895Z,14.94
2018-10-02T13:54:06.795Z,15.00
2018-10-02T13:56:35.454Z,14.91
2018-10-02T13:59:04.358Z,14.72
2018-10-02T14:01:33.026Z,14.61
2018-10-02T14:04:02.186Z,14.55
2018-10-02T14:06:30.917Z,14.51
2018-10-02T14:08:59.582Z,14.53
2018-10-02T14:11:28.307Z,14.61
2018-10-02T14:13:57.321Z,14.71
2018-10-02T14:16:26.054Z,14.83
2018-10-02T14:18:55.452Z,14.94
2018-10-02T14:21:24.173Z,15.01
2018-10-02T14:23:53.676Z,15.04
2018-10-02T14:26:22.217Z,14.96
2018-10-02T14:28:50.849Z,14.85
2018-10-02T14:31:20.142Z,14.76
2018-10-02T14:33:48.898Z,14.73
2018-10-02T14:36:17.525Z,14.65
2018-10-02T14:38:46.101Z,14.68
2018-10-02T14:41:14.648Z,14.69
2018-10-02T14:43:43.183Z,14.61
2018-10-02T14:46:11.766Z,14.55
2018-10-02T14:48:42.221Z,14.43
2018-10-02T14:51:10.883Z,14.29
2018-10-02T14:53:39.629Z,14.15
2018-10-02T14:56:08.302Z,14.03
2018-10-02T14:58:36.933Z,13.98
2018-10-02T15:01:05.478Z,13.94
2018-10-02T15:03:34.028Z,13.87
2018-10-02T15:06:02.581Z,13.81
2018-10-02T15:08:31.137Z,13.77
2018-10-02T15:10:59.848Z,13.73
2018-10-02T15:13:28.427Z,13.64
2018-10-02T15:15:57.047Z,13.56
2018-10-02T15:18:25.597Z,13.44
2018-10-02T15:20:54.511Z,13.34
2018-10-02T15:23:23.453Z,13.32
2018-10-02T15:25:52.058Z,13.33
2018-10-02T15:28:20.729Z,13.32
2018-10-02T15:30:49.402Z,13.29
2018-10-02T15:33:17.990Z,13.23
2018-10-02T15:35:46.629Z,13.20
2018-10-02T15:38:15.170Z,13.16
2018-10-02T15:40:43.743Z,13.11
2018-10-02T15:43:12.414Z,13.00
2018-10-02T15:45:43.199Z,12.96
2018-10-02T15:48:11.880Z,12.89
2018-10-02T15:50:40.539Z,12.83
2018-10-02T15:53:09.346Z,12.74
2018-10-02T15:55:37.963Z,12.67
2018-10-02T15:58:06.602Z,12.56
2018-10-02T16:00:35.548Z,12.44
2018-10-02T16:03:04.242Z,12.33
2018-10-02T16:05:32.921Z,12.28
2018-10-02T16:08:01.626Z,12.25
2018-10-02T16:10:30.282Z,12.22
2018-10-02T16:12:58.964Z,12.17
2018-10-02T16:15:28.300Z,12.07
2018-10-02T16:17:56.896Z,12.02
2018-10-02T16:20:25.604Z,11.96
2018-10-02T16:22:54.224Z,11.92
2018-10-02T16:25:23.031Z,11.82
2018-10-02T16:27:51.679Z,11.79
2018-10-02T16:30:20.468Z,11.75
2018-10-02T16:32:49.037Z,11.61
2018-10-02T16:35:17.754Z,11.59
2018-10-02T16:37:46.437Z,11.56
2018-10-02T16:40:15.343Z,11.51
2018-10-02T16:42:43.935Z,11.49
2018-10-02T16:45:12.699Z,11.44
2018-10-02T16:47:41.281Z,11.40
2018-10-02T16:50:09.964Z,11.32
2018-10-02T16:52:39.025Z,11.27
2018-10-02T16:55:07.752Z,11.31
2018-10-02T16:57:37.317Z,11.31
2018-10-02T17:00:06.326Z,11.35
2018-10-02T17:02:34.957Z,11.37
2018-10-02T17:05:03.718Z,11.38
2018-10-02T17:07:32.481Z,11.34
2018-10-02T17:10:01.099Z,11.35
2018-10-02T17:12:29.678Z,11.30
2018-10-02T17:14:58.413Z,11.26
2018-10-02T17:17:27.004Z,11.21
2018-10-02T17:19:55.622Z,11.20
2018-10-02T17:22:24.244Z,11.21
2018-10-02T17:24:53.008Z,11.15
2018-10-02T17:27:21.637Z,11.09
2018-10-02T17:29:50.323Z,11.08
2018-10-02T17:32:18.918Z,11.02
2018-10-02T17:34:47.500Z,11.08
2018-10-02T17:37:16.114Z,11.12
2018-10-02T17:39:44.792Z,11.12
2018-10-02T17:42:13.686Z,11.13
2018-10-02T17:44:42.339Z,11.10
2018-10-02T17:47:11.050Z,11.06
2018-10-02T17:49:39.590Z,11.12
2018-10-02T17:52:08.935Z,11.12
2018-10-02T17:54:37.516Z,11.14
2018-10-02T17:57:06.134Z,11.10
2018-10-02T17:59:34.821Z,11.03
2018-10-02T18:02:03.782Z,10.99
2018-10-02T18:04:32.403Z,11.09
2018-10-02T18:07:01.024Z,11.15
2018-10-02T18:09:29.615Z,11.12
2018-10-02T18:11:58.225Z,11.15
2018-10-02T18:14:26.834Z,11.18
2018-10-02T18:16:55.487Z,11.21
2018-10-02T18:19:24.145Z,11.18
2018-10-02T18:21:52.699Z,11.15
2018-10-02T18:24:21.268Z,11.19
2018-10-02T18:26:49.853Z,11.17
2018-10-02T18:29:18.480Z,11.19
2018-10-02T18:31:47.371Z,11.21
2018-10-02T18:34:16.302Z,11.18
2018-10-02T18:36:44.994Z,11.19
2018-10-02T18:39:13.690Z,11.21
2018-10-02T18:41:42.385Z,11.13
2018-10-02T18:44:11.013Z,11.07
2018-10-02T18:46:39.624Z,11.16
2018-10-02T18:49:08.682Z,11.24
2018-10-02T18:51:37.880Z,11.24
2018-10-02T18:54:06.992Z,11.32
2018-10-02T18:56:35.977Z,11.30
2018-10-02T18:59:04.744Z,11.25
2018-10-02T19:01:33.357Z,11.28
2018-10-02T19:04:02.650Z,11.30
2018-10-02T19:06:31.600Z,11.35
2018-10-02T19:09:05.291Z,11.45
2018-10-02T19:11:39.149Z,11.48
2018-10-02T19:14:07.877Z,11.48
2018-10-02T19:16:36.697Z,11.49
2018-10-02T19:19:05.356Z,11.49
2018-10-02T19:21:33.950Z,11.49
2018-10-02T19:24:02.540Z,11.46
2018-10-02T19:26:31.300Z,11.48
2018-10-02T19:28:59.870Z,11.50
2018-10-02T19:31:33.614Z,11.44
2018-10-02T19:34:02.207Z,11.45
2018-10-02T19:36:30.767Z,11.40
2018-10-02T19:39:01.251Z,11.40
2018-10-02T19:41:30.327Z,11.40
2018-10-02T19:43:59.117Z,11.38
2018-10-02T19:46:31.829Z,11.39
2018-10-02T19:49:00.413Z,11.37
2018-10-02T19:51:34.294Z,11.36
2018-10-02T19:54:02.886Z,11.37
2018-10-02T19:56:31.414Z,11.39
2018-10-02T19:59:00.026Z,11.38
2018-10-02T20:01:28.768Z,11.28
2018-10-02T20:03:57.410Z,11.31
2018-10-02T20:06:26.010Z,11.34
2018-10-02T20:08:54.635Z,11.32
2018-10-02T20:11:23.207Z,11.27
2018-10-02T20:13:51.796Z,11.30
2018-10-02T20:16:20.622Z,11.30
2018-10-02T20:18:49.509Z,11.32
2018-10-02T20:21:18.193Z,11.30
2018-10-02T20:23:46.952Z,11.21
2018-10-02T20:26:15.574Z,11.18
2018-10-02T20:28:44.153Z,11.09
2018-10-02T20:31:12.758Z,11.00
2018-10-02T20:33:41.312Z,10.88
2018-10-02T20:36:10.032Z,10.82
2018-10-02T20:38:38.662Z,10.74
2018-10-02T20:41:07.227Z,10.70
2018-10-02T20:43:35.994Z,10.65
2018-10-02T20:46:04.588Z,10.55
2018-10-02T20:48:33.131Z,10.55
2018-10-02T20:51:01.792Z,10.57
2018-10-02T20:53:30.448Z,10.58
2018-10-02T20:55:59.195Z,10.57
2018-10-02T20:58:27.759Z,10.58
2018-10-02T21:00:56.366Z,10.60
2018-10-02T21:03:24.909Z,10.61
2018-10-02T21:05:53.458Z,10.61
2018-10-02T21:08:22.100Z,10.55
2018-10-02T21:10:50.733Z,10.56
2018-10-02T21:13:19.330Z,10.54
2018-10-02T21:15:47.897Z,10.57
2018-10-02T21:18:16.494Z,10.62
2018-10-02T21:20:45.068Z,10.65
2018-10-02T21:23:13.615Z,10.64
2018-10-02T21:25:42.830Z,10.63
2018-10-02T21:28:11.494Z,10.67
2018-10-02T21:30:40.962Z,10.69
2018-10-02T21:33:09.648Z,10.63
2018-10-02T21:35:38.202Z,10.58
2018-10-02T21:38:06.806Z,10.53
2018-10-02T21:40:35.460Z,10.44
2018-10-02T21:43:04.046Z,10.51
2018-10-02T21:45:33.046Z,10.47
2018-10-02T21:48:01.838Z,10.47
2018-10-02T21:50:30.447Z,10.47
2018-10-02T21:52:59.862Z,10.42
2018-10-02T21:55:28.397Z,10.33
2018-10-02T21:57:56.990Z,10.23
2018-10-02T22:00:26.030Z,10.13
2018-10-02T22:02:54.859Z,10.05
2018-10-02T22:05:24.182Z,9.90
2018-10-02T22:07:52.890Z,9.86
2018-10-02T22:10:21.557Z,9.79
2018-10-02T22:12:50.322Z,9.82
2018-10-02T22:15:19.006Z,9.74
2018-10-02T22:17:47.776Z,9.71
2018-10-02T22:20:16.337Z,9.70
2018-10-02T22:22:44.872Z,9.68
2018-10-02T22:25:13.809Z,9.65
2018-10-02T22:27:43.106Z,9.61
2018-10-02T22:30:13.134Z,9.57
2018-10-02T22:32:43.186Z,9.51
2018-10-02T22:35:12.087Z,9.50
2018-10-02T22:37:40.742Z,9.46
2018-10-02T22:40:09.702Z,9.49
2018-10-02T22:42:38.333Z,9.47
2018-10-02T22:45:06.888Z,9.46
2018-10-02T22:47:35.623Z,9.44
2018-10-02T22:50:04.467Z,9.45
2018-10-02T22:52:33.267Z,9.41
2018-10-02T22:55:02.046Z,9.45
2018-10-02T22:57:31.370Z,9.43
2018-10-02T23:00:00.133Z,9.42
2018-10-02T23:02:28.715Z,9.42
2018-10-02T23:04:58.398Z,9.36
2018-10-02T23:07:26.981Z,9.37
2018-10-02T23:09:55.728Z,9.40
2018-10-02T23:12:25.105Z,9.39
2018-10-02T23:14:53.983Z,9.40
2018-10-02T23:17:22.601Z,9.36
2018-10-02T23:19:51.184Z,9.38
2018-10-02T23:22:19.761Z,9.40
2018-10-02T23:24:48.346Z,9.41
2018-10-02T23:27:16.982Z,9.40
2018-10-02T23:29:46.265Z,9.43
2018-10-02T23:32:16.594Z,9.43
2018-10-02T23:34:45.274Z,9.46
2018-10-02T23:37:14.002Z,9.44
2018-10-02T23:39:43.022Z,9.42
2018-10-02T23:42:11.636Z,9.43
2018-10-02T23:44:40.241Z,9.47
2018-10-02T23:47:08.822Z,9.49
2018-10-02T23:49:37.410Z,9.52
2018-10-02T23:52:06.903Z,9.57
2018-10-02T23:54:36.085Z,9.58
2018-10-02T23:57:04.827Z,9.55
2018-10-02T23:59:33.495Z,9.56
